sensor_id;sensor_type;location;lat;lon;timestamp;pressure;altitude;pressure_sealevel;temperature;humidity
12963;BME280;6546;49.882;8.666;2023-03-03T00:01:31;100369.09;;;4.95;48.51
12963;BME280;6546;49.882;8.666;2023-03-03T00:03:58;100360.13;;;4.89;48.91
12963;BME280;6546;49.882;8.666;2023-03-03T00:06:26;100381.56;;;4.99;48.85
12963;BME280;6546;49.882;8.666;2023-03-03T00:08:55;100380.75;;;4.99;49.44
12963;BME280;6546;49.882;8.666;2023-03-03T00:11:21;100374.69;;;5.00;49.54
12963;BME280;6546;49.882;8.666;2023-03-03T00:13:50;100377.50;;;4.97;49.30
12963;BME280;6546;49.882;8.666;2023-03-03T00:16:22;100380.16;;;4.95;49.97
12963;BME280;6546;49.882;8.666;2023-03-03T00:18:50;100376.91;;;4.93;49.27
12963;BME280;6546;49.882;8.666;2023-03-03T00:21:29;100375.16;;;4.94;49.45
12963;BME280;6546;49.882;8.666;2023-03-03T00:24:20;100390.22;;;4.87;50.13
12963;BME280;6546;49.882;8.666;2023-03-03T00:26:48;100385.19;;;4.86;50.18
12963;BME280;6546;49.882;8.666;2023-03-03T00:29:37;100391.63;;;4.80;50.72
12963;BME280;6546;49.882;8.666;2023-03-03T00:32:24;100391.47;;;4.82;50.83
12963;BME280;6546;49.882;8.666;2023-03-03T00:34:53;100393.50;;;4.78;50.88
12963;BME280;6546;49.882;8.666;2023-03-03T00:37:31;100398.13;;;4.73;51.11
12963;BME280;6546;49.882;8.666;2023-03-03T00:40:10;100406.41;;;4.76;50.99
12963;BME280;6546;49.882;8.666;2023-03-03T00:42:39;100406.53;;;4.75;51.31
12963;BME280;6546;49.882;8.666;2023-03-03T00:45:20;100400.03;;;4.71;51.57
12963;BME280;6546;49.882;8.666;2023-03-03T00:47:49;100401.28;;;4.65;51.62
12963;BME280;6546;49.882;8.666;2023-03-03T00:50:28;100405.94;;;4.60;52.14
12963;BME280;6546;49.882;8.666;2023-03-03T00:53:10;100415.03;;;4.53;52.35
12963;BME280;6546;49.882;8.666;2023-03-03T00:55:38;100419.09;;;4.56;52.42
12963;BME280;6546;49.882;8.666;2023-03-03T00:58:05;100423.09;;;4.49;52.70
12963;BME280;6546;49.882;8.666;2023-03-03T01:00:32;100417.50;;;4.55;52.82
12963;BME280;6546;49.882;8.666;2023-03-03T01:03:01;100425.28;;;4.53;53.01
12963;BME280;6546;49.882;8.666;2023-03-03T01:05:32;100417.13;;;4.48;52.97
12963;BME280;6546;49.882;8.666;2023-03-03T01:07:59;100422.59;;;4.44;53.54
12963;BME280;6546;49.882;8.666;2023-03-03T01:10:30;100422.94;;;4.39;53.69
12963;BME280;6546;49.882;8.666;2023-03-03T01:12:57;100419.56;;;4.39;53.79
12963;BME280;6546;49.882;8.666;2023-03-03T01:15:24;100419.44;;;4.40;53.88
12963;BME280;6546;49.882;8.666;2023-03-03T01:17:51;100417.47;;;4.33;54.15
12963;BME280;6546;49.882;8.666;2023-03-03T01:20:17;100415.91;;;4.30;54.47
12963;BME280;6546;49.882;8.666;2023-03-03T01:22:44;100412.34;;;4.33;54.40
12963;BME280;6546;49.882;8.666;2023-03-03T01:25:11;100413.59;;;4.27;54.97
12963;BME280;6546;49.882;8.666;2023-03-03T01:27:40;100415.13;;;4.30;54.96
12963;BME280;6546;49.882;8.666;2023-03-03T01:30:08;100413.94;;;4.22;55.24
12963;BME280;6546;49.882;8.666;2023-03-03T01:32:37;100419.66;;;4.26;55.23
12963;BME280;6546;49.882;8.666;2023-03-03T01:35:04;100406.47;;;4.19;55.39
12963;BME280;6546;49.882;8.666;2023-03-03T01:37:33;100406.47;;;4.19;55.56
12963;BME280;6546;49.882;8.666;2023-03-03T01:39:59;100401.59;;;4.16;55.53
12963;BME280;6546;49.882;8.666;2023-03-03T01:42:26;100414.03;;;4.21;55.46
12963;BME280;6546;49.882;8.666;2023-03-03T01:45:14;100411.69;;;4.18;55.48
12963;BME280;6546;49.882;8.666;2023-03-03T01:47:44;100399.25;;;4.13;55.35
12963;BME280;6546;49.882;8.666;2023-03-03T01:50:21;100414.56;;;4.02;55.91
12963;BME280;6546;49.882;8.666;2023-03-03T01:52:50;100412.13;;;4.01;56.15
12963;BME280;6546;49.882;8.666;2023-03-03T01:55:19;100401.50;;;3.94;56.50
12963;BME280;6546;49.882;8.666;2023-03-03T01:57:51;100411.41;;;3.99;56.66
12963;BME280;6546;49.882;8.666;2023-03-03T02:00:37;100402.44;;;3.93;56.61
12963;BME280;6546;49.882;8.666;2023-03-03T02:03:05;100398.75;;;3.97;56.48
12963;BME280;6546;49.882;8.666;2023-03-03T02:05:32;100403.88;;;3.97;56.36
12963;BME280;6546;49.882;8.666;2023-03-03T02:08:00;100402.09;;;3.98;56.26
12963;BME280;6546;49.882;8.666;2023-03-03T02:10:29;100395.22;;;3.87;56.51
12963;BME280;6546;49.882;8.666;2023-03-03T02:12:57;100398.91;;;3.83;56.60
12963;BME280;6546;49.882;8.666;2023-03-03T02:15:28;100410.88;;;3.72;57.39
12963;BME280;6546;49.882;8.666;2023-03-03T02:17:58;100403.06;;;3.73;57.01
12963;BME280;6546;49.882;8.666;2023-03-03T02:20:42;100394.94;;;3.79;56.89
12963;BME280;6546;49.882;8.666;2023-03-03T02:23:17;100393.75;;;3.72;56.62
12963;BME280;6546;49.882;8.666;2023-03-03T02:25:51;100398.97;;;3.70;56.58
12963;BME280;6546;49.882;8.666;2023-03-03T02:28:22;100399.28;;;3.55;57.18
12963;BME280;6546;49.882;8.666;2023-03-03T02:30:53;100398.00;;;3.60;56.85
12963;BME280;6546;49.882;8.666;2023-03-03T02:33:21;100405.22;;;3.55;56.98
12963;BME280;6546;49.882;8.666;2023-03-03T02:35:47;100412.06;;;3.55;56.86
12963;BME280;6546;49.882;8.666;2023-03-03T02:38:19;100405.63;;;3.49;56.74
12963;BME280;6546;49.882;8.666;2023-03-03T02:40:56;100408.13;;;3.38;57.43
12963;BME280;6546;49.882;8.666;2023-03-03T02:43:29;100400.56;;;3.37;57.85
12963;BME280;6546;49.882;8.666;2023-03-03T02:45:57;100398.38;;;3.43;57.89
12963;BME280;6546;49.882;8.666;2023-03-03T02:48:23;100400.56;;;3.37;57.93
12963;BME280;6546;49.882;8.666;2023-03-03T02:50:50;100404.81;;;3.25;58.26
12963;BME280;6546;49.882;8.666;2023-03-03T02:53:17;100400.19;;;3.17;58.31
12963;BME280;6546;49.882;8.666;2023-03-03T02:55:43;100400.19;;;3.17;58.13
12963;BME280;6546;49.882;8.666;2023-03-03T02:58:10;100400.63;;;3.11;58.30
12963;BME280;6546;49.882;8.666;2023-03-03T03:00:38;100405.06;;;3.09;58.16
12963;BME280;6546;49.882;8.666;2023-03-03T03:03:04;100409.00;;;3.13;58.05
12963;BME280;6546;49.882;8.666;2023-03-03T03:05:31;100415.28;;;3.09;58.39
12963;BME280;6546;49.882;8.666;2023-03-03T03:07:58;100419.41;;;2.99;58.79
12963;BME280;6546;49.882;8.666;2023-03-03T03:10:24;100411.94;;;2.96;59.18
12963;BME280;6546;49.882;8.666;2023-03-03T03:12:51;100408.25;;;3.00;59.37
12963;BME280;6546;49.882;8.666;2023-03-03T03:15:18;100411.31;;;2.93;59.91
12963;BME280;6546;49.882;8.666;2023-03-03T03:17:46;100408.25;;;2.88;60.06
12963;BME280;6546;49.882;8.666;2023-03-03T03:20:13;100412.78;;;2.84;60.17
12963;BME280;6546;49.882;8.666;2023-03-03T03:22:40;100412.03;;;2.82;60.14
12963;BME280;6546;49.882;8.666;2023-03-03T03:25:07;100409.22;;;2.74;60.41
12963;BME280;6546;49.882;8.666;2023-03-03T03:27:34;100408.19;;;2.77;60.19
12963;BME280;6546;49.882;8.666;2023-03-03T03:30:01;100413.38;;;2.75;60.29
12963;BME280;6546;49.882;8.666;2023-03-03T03:32:28;100402.03;;;2.67;60.83
12963;BME280;6546;49.882;8.666;2023-03-03T03:34:56;100408.06;;;2.65;61.12
12963;BME280;6546;49.882;8.666;2023-03-03T03:37:23;100415.44;;;2.57;61.49
12963;BME280;6546;49.882;8.666;2023-03-03T03:39:50;100410.00;;;2.62;61.56
12963;BME280;6546;49.882;8.666;2023-03-03T03:42:18;100403.91;;;2.52;61.89
12963;BME280;6546;49.882;8.666;2023-03-03T03:44:45;100408.91;;;2.53;61.66
12963;BME280;6546;49.882;8.666;2023-03-03T03:47:11;100416.16;;;2.47;61.84
12963;BME280;6546;49.882;8.666;2023-03-03T03:49:38;100418.91;;;2.44;61.87
12963;BME280;6546;49.882;8.666;2023-03-03T03:52:06;100418.50;;;2.37;62.32
12963;BME280;6546;49.882;8.666;2023-03-03T03:54:33;100416.66;;;2.39;62.56
12963;BME280;6546;49.882;8.666;2023-03-03T03:56:59;100419.63;;;2.46;62.67
12963;BME280;6546;49.882;8.666;2023-03-03T03:59:26;100407.06;;;2.43;62.95
12963;BME280;6546;49.882;8.666;2023-03-03T04:01:52;100406.63;;;2.49;63.01
12963;BME280;6546;49.882;8.666;2023-03-03T04:04:19;100416.16;;;2.47;63.19
12963;BME280;6546;49.882;8.666;2023-03-03T04:06:46;100415.03;;;2.51;63.55
12963;BME280;6546;49.882;8.666;2023-03-03T04:09:15;100416.16;;;2.47;63.47
12963;BME280;6546;49.882;8.666;2023-03-03T04:11:41;100419.41;;;2.49;63.59
12963;BME280;6546;49.882;8.666;2023-03-03T04:14:08;100423.13;;;2.45;64.14
12963;BME280;6546;49.882;8.666;2023-03-03T04:16:35;100427.69;;;2.52;63.92
12963;BME280;6546;49.882;8.666;2023-03-03T04:19:01;100427.59;;;2.41;64.29
12963;BME280;6546;49.882;8.666;2023-03-03T04:21:28;100427.91;;;2.37;64.66
12963;BME280;6546;49.882;8.666;2023-03-03T04:23:54;100429.44;;;2.39;64.55
12963;BME280;6546;49.882;8.666;2023-03-03T04:26:22;100425.66;;;2.32;64.74
12963;BME280;6546;49.882;8.666;2023-03-03T04:28:51;100429.13;;;2.19;65.68
12963;BME280;6546;49.882;8.666;2023-03-03T04:31:17;100431.28;;;2.25;65.71
12963;BME280;6546;49.882;8.666;2023-03-03T04:33:44;100434.03;;;2.34;65.64
12963;BME280;6546;49.882;8.666;2023-03-03T04:36:11;100436.69;;;2.33;65.80
12963;BME280;6546;49.882;8.666;2023-03-03T04:38:38;100434.13;;;2.33;65.78
12963;BME280;6546;49.882;8.666;2023-03-03T04:41:04;100434.94;;;2.33;66.06
12963;BME280;6546;49.882;8.666;2023-03-03T04:43:32;100444.34;;;2.33;66.41
12963;BME280;6546;49.882;8.666;2023-03-03T04:45:59;100443.44;;;2.34;66.38
12963;BME280;6546;49.882;8.666;2023-03-03T04:48:25;100444.75;;;2.39;66.49
12963;BME280;6546;49.882;8.666;2023-03-03T04:50:53;100447.94;;;2.43;66.83
12963;BME280;6546;49.882;8.666;2023-03-03T04:53:19;100447.63;;;2.35;67.17
12963;BME280;6546;49.882;8.666;2023-03-03T04:55:49;100450.38;;;2.32;67.68
12963;BME280;6546;49.882;8.666;2023-03-03T04:58:15;100450.50;;;2.43;67.38
12963;BME280;6546;49.882;8.666;2023-03-03T05:00:44;100459.81;;;2.44;67.37
12963;BME280;6546;49.882;8.666;2023-03-03T05:03:12;100457.56;;;2.52;67.26
12963;BME280;6546;49.882;8.666;2023-03-03T05:05:39;100455.31;;;2.47;67.32
12963;BME280;6546;49.882;8.666;2023-03-03T05:08:05;100454.06;;;2.53;67.22
12963;BME280;6546;49.882;8.666;2023-03-03T05:10:32;100448.75;;;2.56;66.90
12963;BME280;6546;49.882;8.666;2023-03-03T05:12:59;100450.69;;;2.52;67.10
12963;BME280;6546;49.882;8.666;2023-03-03T05:15:25;100460.81;;;2.41;67.13
12963;BME280;6546;49.882;8.666;2023-03-03T05:17:53;100462.06;;;2.36;67.12
12963;BME280;6546;49.882;8.666;2023-03-03T05:20:21;100451.28;;;2.31;67.21
12963;BME280;6546;49.882;8.666;2023-03-03T05:22:48;100443.41;;;2.21;67.52
12963;BME280;6546;49.882;8.666;2023-03-03T05:25:15;100451.38;;;2.17;67.95
12963;BME280;6546;49.882;8.666;2023-03-03T05:27:42;100457.63;;;2.13;68.03
12963;BME280;6546;49.882;8.666;2023-03-03T05:30:10;100448.00;;;2.03;68.43
12963;BME280;6546;49.882;8.666;2023-03-03T05:32:36;100442.97;;;2.02;68.50
12963;BME280;6546;49.882;8.666;2023-03-03T05:35:05;100442.97;;;2.02;68.48
12963;BME280;6546;49.882;8.666;2023-03-03T05:37:32;100450.31;;;1.94;68.38
12963;BME280;6546;49.882;8.666;2023-03-03T05:39:58;100454.69;;;1.92;68.60
12963;BME280;6546;49.882;8.666;2023-03-03T05:42:25;100453.78;;;1.93;68.70
12963;BME280;6546;49.882;8.666;2023-03-03T05:44:52;100459.91;;;1.90;69.03
12963;BME280;6546;49.882;8.666;2023-03-03T05:47:18;100464.28;;;1.88;68.89
12963;BME280;6546;49.882;8.666;2023-03-03T05:49:45;100460.63;;;1.92;68.86
12963;BME280;6546;49.882;8.666;2023-03-03T05:52:13;100457.34;;;1.90;69.19
12963;BME280;6546;49.882;8.666;2023-03-03T05:54:39;100470.00;;;1.92;69.27
12963;BME280;6546;49.882;8.666;2023-03-03T05:57:06;100467.56;;;1.90;70.10
12963;BME280;6546;49.882;8.666;2023-03-03T05:59:33;100478.81;;;2.00;69.84
12963;BME280;6546;49.882;8.666;2023-03-03T06:01:59;100481.56;;;1.97;70.06
12963;BME280;6546;49.882;8.666;2023-03-03T06:04:26;100482.38;;;1.98;70.25
12963;BME280;6546;49.882;8.666;2023-03-03T06:06:53;100480.75;;;1.97;70.26
12963;BME280;6546;49.882;8.666;2023-03-03T06:09:21;100481.00;;;2.06;70.01
12963;BME280;6546;49.882;8.666;2023-03-03T06:11:47;100485.06;;;2.09;69.75
12963;BME280;6546;49.882;8.666;2023-03-03T06:14:14;100476.31;;;2.13;69.62
12963;BME280;6546;49.882;8.666;2023-03-03T06:16:41;100488.97;;;2.15;69.70
12963;BME280;6546;49.882;8.666;2023-03-03T06:19:07;100487.13;;;2.17;69.80
12963;BME280;6546;49.882;8.666;2023-03-03T06:21:34;100489.38;;;2.08;69.48
12963;BME280;6546;49.882;8.666;2023-03-03T06:24:00;100502.13;;;2.08;69.76
12963;BME280;6546;49.882;8.666;2023-03-03T06:26:29;100502.13;;;2.08;70.01
12963;BME280;6546;49.882;8.666;2023-03-03T06:28:56;100507.81;;;1.99;70.45
12963;BME280;6546;49.882;8.666;2023-03-03T06:31:23;100518.34;;;2.07;70.14
12963;BME280;6546;49.882;8.666;2023-03-03T06:33:50;100509.72;;;2.10;70.10
12963;BME280;6546;49.882;8.666;2023-03-03T06:36:17;100519.91;;;2.10;70.28
12963;BME280;6546;49.882;8.666;2023-03-03T06:38:44;100515.41;;;2.13;70.08
12963;BME280;6546;49.882;8.666;2023-03-03T06:41:10;100519.41;;;2.18;69.80
12963;BME280;6546;49.882;8.666;2023-03-03T06:43:42;100528.00;;;2.17;69.88
12963;BME280;6546;49.882;8.666;2023-03-03T06:46:08;100529.44;;;2.21;69.76
12963;BME280;6546;49.882;8.666;2023-03-03T06:48:35;100534.03;;;2.16;70.31
12963;BME280;6546;49.882;8.666;2023-03-03T06:51:02;100529.34;;;2.22;69.96
12963;BME280;6546;49.882;8.666;2023-03-03T06:53:34;100535.97;;;2.12;70.24
12963;BME280;6546;49.882;8.666;2023-03-03T06:56:07;100527.06;;;2.18;70.17
12963;BME280;6546;49.882;8.666;2023-03-03T06:58:34;100531.69;;;2.13;70.40
12963;BME280;6546;49.882;8.666;2023-03-03T07:01:10;100539.03;;;2.17;70.49
12963;BME280;6546;49.882;8.666;2023-03-03T07:03:38;100540.19;;;2.26;70.03
12963;BME280;6546;49.882;8.666;2023-03-03T07:06:20;100550.50;;;2.24;70.34
12963;BME280;6546;49.882;8.666;2023-03-03T07:08:49;100550.09;;;2.30;70.08
12963;BME280;6546;49.882;8.666;2023-03-03T07:11:21;100556.59;;;2.36;70.11
12963;BME280;6546;49.882;8.666;2023-03-03T07:13:55;100568.81;;;2.31;70.10
12963;BME280;6546;49.882;8.666;2023-03-03T07:16:44;100557.97;;;2.27;70.25
12963;BME280;6546;49.882;8.666;2023-03-03T07:19:18;100562.78;;;2.32;70.39
12963;BME280;6546;49.882;8.666;2023-03-03T07:21:45;100574.03;;;2.29;70.59
12963;BME280;6546;49.882;8.666;2023-03-03T07:24:21;100577.72;;;2.38;70.47
12963;BME280;6546;49.882;8.666;2023-03-03T07:26:50;100584.69;;;2.36;70.86
12963;BME280;6546;49.882;8.666;2023-03-03T07:29:21;100582.22;;;2.34;70.78
12963;BME280;6546;49.882;8.666;2023-03-03T07:31:52;100590.69;;;2.35;70.94
12963;BME280;6546;49.882;8.666;2023-03-03T07:34:23;100588.53;;;2.29;71.34
12963;BME280;6546;49.882;8.666;2023-03-03T07:36:53;100595.00;;;2.34;71.18
12963;BME280;6546;49.882;8.666;2023-03-03T07:39:33;100598.13;;;2.25;71.58
12963;BME280;6546;49.882;8.666;2023-03-03T07:42:21;100596.19;;;2.29;71.67
12963;BME280;6546;49.882;8.666;2023-03-03T07:44:53;100602.72;;;2.33;71.65
12963;BME280;6546;49.882;8.666;2023-03-03T07:47:24;100607.47;;;2.39;71.41
12963;BME280;6546;49.882;8.666;2023-03-03T07:49:53;100614.56;;;2.21;72.15
12963;BME280;6546;49.882;8.666;2023-03-03T07:52:28;100616.38;;;2.46;71.55
12963;BME280;6546;49.882;8.666;2023-03-03T07:54:58;100620.38;;;2.50;71.45
12963;BME280;6546;49.882;8.666;2023-03-03T07:57:28;100619.31;;;2.67;70.92
12963;BME280;6546;49.882;8.666;2023-03-03T08:00:01;100630.16;;;2.70;70.72
12963;BME280;6546;49.882;8.666;2023-03-03T08:02:38;100631.28;;;2.66;70.69
12963;BME280;6546;49.882;8.666;2023-03-03T08:05:27;100631.22;;;2.80;70.55
12963;BME280;6546;49.882;8.666;2023-03-03T08:08:00;100634.88;;;2.76;70.01
12963;BME280;6546;49.882;8.666;2023-03-03T08:10:36;100628.94;;;2.76;70.41
12963;BME280;6546;49.882;8.666;2023-03-03T08:13:14;100634.47;;;2.82;70.37
12963;BME280;6546;49.882;8.666;2023-03-03T08:15:45;100640.47;;;2.69;70.38
12963;BME280;6546;49.882;8.666;2023-03-03T08:18:22;100644.41;;;2.74;70.52
12963;BME280;6546;49.882;8.666;2023-03-03T08:20:59;100646.72;;;2.64;70.74
12963;BME280;6546;49.882;8.666;2023-03-03T08:23:26;100652.63;;;2.65;70.57
12963;BME280;6546;49.882;8.666;2023-03-03T08:25:53;100651.28;;;2.59;70.85
12963;BME280;6546;49.882;8.666;2023-03-03T08:28:20;100643.00;;;2.56;70.97
12963;BME280;6546;49.882;8.666;2023-03-03T08:30:47;100653.41;;;2.53;71.02
12963;BME280;6546;49.882;8.666;2023-03-03T08:33:15;100651.25;;;2.47;71.40
12963;BME280;6546;49.882;8.666;2023-03-03T08:35:44;100642.78;;;2.59;71.21
12963;BME280;6546;49.882;8.666;2023-03-03T08:38:11;100647.16;;;2.71;70.78
12963;BME280;6546;49.882;8.666;2023-03-03T08:40:38;100658.03;;;2.87;70.44
12963;BME280;6546;49.882;8.666;2023-03-03T08:43:05;100651.50;;;2.96;70.04
12963;BME280;6546;49.882;8.666;2023-03-03T08:45:32;100641.03;;;2.86;70.00
12963;BME280;6546;49.882;8.666;2023-03-03T08:47:59;100651.94;;;3.15;69.50
12963;BME280;6546;49.882;8.666;2023-03-03T08:50:27;100649.88;;;3.07;69.08
12963;BME280;6546;49.882;8.666;2023-03-03T08:52:56;100636.66;;;3.01;69.27
12963;BME280;6546;49.882;8.666;2023-03-03T08:55:22;100647.72;;;3.14;69.31
12963;BME280;6546;49.882;8.666;2023-03-03T08:57:49;100651.13;;;3.14;68.71
12963;BME280;6546;49.882;8.666;2023-03-03T09:00:16;100646.41;;;3.21;68.62
12963;BME280;6546;49.882;8.666;2023-03-03T09:02:43;100654.09;;;3.08;68.82
12963;BME280;6546;49.882;8.666;2023-03-03T09:05:10;100650.81;;;3.06;68.66
12963;BME280;6546;49.882;8.666;2023-03-03T09:07:37;100651.53;;;3.08;68.90
12963;BME280;6546;49.882;8.666;2023-03-03T09:10:07;100648.88;;;3.23;68.75
12963;BME280;6546;49.882;8.666;2023-03-03T09:12:36;100656.22;;;3.14;69.06
12963;BME280;6546;49.882;8.666;2023-03-03T09:15:13;100650.31;;;3.27;68.72
12963;BME280;6546;49.882;8.666;2023-03-03T09:17:40;100653.19;;;3.35;68.39
12963;BME280;6546;49.882;8.666;2023-03-03T09:20:21;100656.78;;;3.45;68.24
12963;BME280;6546;49.882;8.666;2023-03-03T09:22:49;100657.59;;;3.33;67.68
12963;BME280;6546;49.882;8.666;2023-03-03T09:25:22;100666.47;;;3.14;68.05
12963;BME280;6546;49.882;8.666;2023-03-03T09:27:52;100664.44;;;3.20;68.32
12963;BME280;6546;49.882;8.666;2023-03-03T09:30:35;100656.66;;;3.21;68.17
12963;BME280;6546;49.882;8.666;2023-03-03T09:33:21;100657.69;;;3.31;68.39
12963;BME280;6546;49.882;8.666;2023-03-03T09:35:51;100664.34;;;3.34;68.25
12963;BME280;6546;49.882;8.666;2023-03-03T09:38:25;100658.59;;;3.43;68.17
12963;BME280;6546;49.882;8.666;2023-03-03T09:41:15;100668.34;;;3.38;68.00
12963;BME280;6546;49.882;8.666;2023-03-03T09:46:51;100661.78;;;3.59;67.99
12963;BME280;6546;49.882;8.666;2023-03-03T09:49:30;100657.16;;;3.77;67.53
12963;BME280;6546;49.882;8.666;2023-03-03T09:52:19;100664.19;;;3.98;67.15
12963;BME280;6546;49.882;8.666;2023-03-03T09:54:55;100661.94;;;4.06;66.20
12963;BME280;6546;49.882;8.666;2023-03-03T09:57:34;100656.31;;;4.01;65.35
12963;BME280;6546;49.882;8.666;2023-03-03T10:00:21;100666.75;;;3.98;65.11
12963;BME280;6546;49.882;8.666;2023-03-03T10:03:08;100672.81;;;3.97;65.31
12963;BME280;6546;49.882;8.666;2023-03-03T10:05:45;100674.13;;;4.03;65.34
12963;BME280;6546;49.882;8.666;2023-03-03T10:08:27;100659.88;;;4.11;65.04
12963;BME280;6546;49.882;8.666;2023-03-03T10:11:05;100664.56;;;4.17;64.91
12963;BME280;6546;49.882;8.666;2023-03-03T10:13:48;100670.47;;;4.31;64.68
12963;BME280;6546;49.882;8.666;2023-03-03T10:16:35;100669.59;;;4.43;63.86
12963;BME280;6546;49.882;8.666;2023-03-03T10:19:13;100675.34;;;4.46;63.91
12963;BME280;6546;49.882;8.666;2023-03-03T10:21:46;100678.50;;;4.50;63.60
12963;BME280;6546;49.882;8.666;2023-03-03T10:24:23;100679.03;;;4.55;63.68
12963;BME280;6546;49.882;8.666;2023-03-03T10:27:04;100684.53;;;4.61;63.41
12963;BME280;6546;49.882;8.666;2023-03-03T10:29:38;100674.66;;;4.68;63.32
12963;BME280;6546;49.882;8.666;2023-03-03T10:32:27;100672.91;;;4.68;62.70
12963;BME280;6546;49.882;8.666;2023-03-03T10:35:07;100675.66;;;4.65;63.06
12963;BME280;6546;49.882;8.666;2023-03-03T10:37:48;100677.47;;;4.76;63.52
12963;BME280;6546;49.882;8.666;2023-03-03T10:40:25;100671.59;;;4.87;62.74
12963;BME280;6546;49.882;8.666;2023-03-03T10:43:08;100674.31;;;4.96;61.98
12963;BME280;6546;49.882;8.666;2023-03-03T10:46:13;100681.09;;;5.08;61.92
12963;BME280;6546;49.882;8.666;2023-03-03T10:51:54;100677.72;;;5.08;60.20
12963;BME280;6546;49.882;8.666;2023-03-03T10:54:32;100681.38;;;5.16;60.38
12963;BME280;6546;49.882;8.666;2023-03-03T10:57:12;100688.25;;;5.27;60.24
12963;BME280;6546;49.882;8.666;2023-03-03T10:59:59;100688.84;;;5.30;60.18
12963;BME280;6546;49.882;8.666;2023-03-03T11:02:37;100678.13;;;5.37;59.69
12963;BME280;6546;49.882;8.666;2023-03-03T11:05:18;100689.25;;;5.48;59.15
12963;BME280;6546;49.882;8.666;2023-03-03T11:07:49;100682.16;;;5.52;58.86
12963;BME280;6546;49.882;8.666;2023-03-03T11:10:29;100683.44;;;5.57;58.72
12963;BME280;6546;49.882;8.666;2023-03-03T11:13:08;100677.59;;;5.55;58.10
12963;BME280;6546;49.882;8.666;2023-03-03T11:15:46;100685.41;;;5.54;58.38
12963;BME280;6546;49.882;8.666;2023-03-03T11:18:34;100690.31;;;5.57;58.07
12963;BME280;6546;49.882;8.666;2023-03-03T11:21:12;100682.03;;;5.64;58.57
12963;BME280;6546;49.882;8.666;2023-03-03T11:24:14;100685.31;;;5.66;59.62
12963;BME280;6546;49.882;8.666;2023-03-03T11:26:54;100680.75;;;5.59;60.65
12963;BME280;6546;49.882;8.666;2023-03-03T11:29:31;100678.41;;;5.67;60.57
12963;BME280;6546;49.882;8.666;2023-03-03T11:32:12;100669.88;;;5.66;60.13
12963;BME280;6546;49.882;8.666;2023-03-03T11:34:54;100662.91;;;5.68;59.79
12963;BME280;6546;49.882;8.666;2023-03-03T11:37:24;100660.34;;;5.68;59.57
12963;BME280;6546;49.882;8.666;2023-03-03T11:39:54;100660.69;;;5.75;59.50
12963;BME280;6546;49.882;8.666;2023-03-03T11:42:25;100658.13;;;5.75;59.56
12963;BME280;6546;49.882;8.666;2023-03-03T11:44:55;100658.13;;;5.75;59.55
12963;BME280;6546;49.882;8.666;2023-03-03T11:47:27;100653.44;;;5.80;59.95
12963;BME280;6546;49.882;8.666;2023-03-03T11:50:00;100651.78;;;5.79;58.88
12963;BME280;6546;49.882;8.666;2023-03-03T11:52:32;100653.78;;;5.75;59.21
12963;BME280;6546;49.882;8.666;2023-03-03T11:55:07;100639.19;;;5.76;59.34
12963;BME280;6546;49.882;8.666;2023-03-03T11:57:39;100637.47;;;5.88;59.51
12963;BME280;6546;49.882;8.666;2023-03-03T12:00:17;100648.56;;;5.99;59.04
12963;BME280;6546;49.882;8.666;2023-03-03T12:06:06;100625.19;;;6.02;57.61
12963;BME280;6546;49.882;8.666;2023-03-03T12:08:54;100627.97;;;6.10;57.75
12963;BME280;6546;49.882;8.666;2023-03-03T12:11:26;100619.56;;;6.08;57.59
12963;BME280;6546;49.882;8.666;2023-03-03T12:13:57;100626.34;;;6.09;57.21
12963;BME280;6546;49.882;8.666;2023-03-03T12:16:40;100618.88;;;6.06;57.24
12963;BME280;6546;49.882;8.666;2023-03-03T12:19:15;100618.28;;;6.14;56.59
12963;BME280;6546;49.882;8.666;2023-03-03T12:22:00;100616.75;;;6.11;56.28
12963;BME280;6546;49.882;8.666;2023-03-03T12:24:41;100616.97;;;6.19;56.35
12963;BME280;6546;49.882;8.666;2023-03-03T12:27:18;100614.84;;;6.24;55.59
12963;BME280;6546;49.882;8.666;2023-03-03T12:29:58;100609.22;;;6.30;55.16
12963;BME280;6546;49.882;8.666;2023-03-03T12:32:34;100611.19;;;6.38;55.36
12963;BME280;6546;49.882;8.666;2023-03-03T12:35:09;100600.66;;;6.41;55.62
12963;BME280;6546;49.882;8.666;2023-03-03T12:37:53;100596.59;;;6.39;55.41
12963;BME280;6546;49.882;8.666;2023-03-03T12:40:24;100603.91;;;6.43;55.43
12963;BME280;6546;49.882;8.666;2023-03-03T12:43:02;100585.38;;;6.40;55.34
12963;BME280;6546;49.882;8.666;2023-03-03T12:45:37;100598.78;;;6.43;55.67
12963;BME280;6546;49.882;8.666;2023-03-03T12:48:15;100585.31;;;6.51;55.73
12963;BME280;6546;49.882;8.666;2023-03-03T12:50:52;100586.56;;;6.56;55.78
12963;BME280;6546;49.882;8.666;2023-03-03T12:53:38;100583.63;;;6.61;55.68
12963;BME280;6546;49.882;8.666;2023-03-03T12:56:13;100580.56;;;6.67;55.45
12963;BME280;6546;49.882;8.666;2023-03-03T12:58:50;100578.56;;;6.70;55.23
12963;BME280;6546;49.882;8.666;2023-03-03T13:01:34;100564.38;;;6.76;55.01
12963;BME280;6546;49.882;8.666;2023-03-03T13:04:10;100568.31;;;6.80;54.77
12963;BME280;6546;49.882;8.666;2023-03-03T13:06:41;100570.38;;;6.86;54.45
12963;BME280;6546;49.882;8.666;2023-03-03T13:09:21;100563.13;;;6.91;53.76
12963;BME280;6546;49.882;8.666;2023-03-03T13:12:14;100563.13;;;6.91;53.74
12963;BME280;6546;49.882;8.666;2023-03-03T13:14:50;100567.06;;;6.95;53.71
12963;BME280;6546;49.882;8.666;2023-03-03T13:17:24;100561.41;;;7.01;53.55
12963;BME280;6546;49.882;8.666;2023-03-03T13:19:55;100567.38;;;7.02;52.70
12963;BME280;6546;49.882;8.666;2023-03-03T13:22:34;100567.38;;;7.02;52.33
12963;BME280;6546;49.882;8.666;2023-03-03T13:25:08;100568.91;;;7.04;52.52
12963;BME280;6546;49.882;8.666;2023-03-03T13:27:44;100564.16;;;7.09;52.78
12963;BME280;6546;49.882;8.666;2023-03-03T13:30:16;100562.97;;;7.13;52.91
12963;BME280;6546;49.882;8.666;2023-03-03T13:32:48;100561.34;;;7.12;52.25
12963;BME280;6546;49.882;8.666;2023-03-03T13:35:27;100563.09;;;7.12;52.68
12963;BME280;6546;49.882;8.666;2023-03-03T13:37:58;100553.75;;;7.11;52.52
12963;BME280;6546;49.882;8.666;2023-03-03T13:40:35;100554.69;;;7.10;52.89
12963;BME280;6546;49.882;8.666;2023-03-03T13:43:09;100548.47;;;7.12;53.27
12963;BME280;6546;49.882;8.666;2023-03-03T13:45:47;100543.72;;;7.17;52.01